sensor_id;sensor_type;location;lat;lon;timestamp;temperature;humidity
23987;DHT22;12514;52.140;5.602;2022-09-21T00:00:49;11.10;99.90
23987;DHT22;12514;52.140;5.602;2022-09-21T00:03:15;11.00;99.90
23987;DHT22;12514;52.140;5.602;2022-09-21T00:05:41;11.00;99.90
23987;DHT22;12514;52.140;5.602;2022-09-21T00:11:30;11.00;99.90
23987;DHT22;12514;52.140;5.602;2022-09-21T00:14:04;11.00;99.90
23987;DHT22;12514;52.140;5.602;2022-09-21T00:16:31;10.90;99.90
23987;DHT22;12514;52.140;5.602;2022-09-21T00:18:58;10.80;99.90
23987;DHT22;12514;52.140;5.602;2022-09-21T00:21:24;10.80;99.90
23987;DHT22;12514;52.140;5.602;2022-09-21T00:23:50;10.70;99.90
23987;DHT22;12514;52.140;5.602;2022-09-21T00:26:19;10.70;99.90
23987;DHT22;12514;52.140;5.602;2022-09-21T00:28:46;10.70;99.90
23987;DHT22;12514;52.140;5.602;2022-09-21T00:31:14;10.60;99.90
23987;DHT22;12514;52.140;5.602;2022-09-21T00:33:40;10.60;99.90
23987;DHT22;12514;52.140;5.602;2022-09-21T00:36:12;10.50;99.90
23987;DHT22;12514;52.140;5.602;2022-09-21T00:38:38;10.50;99.90
23987;DHT22;12514;52.140;5.602;2022-09-21T00:41:05;10.50;99.90
23987;DHT22;12514;52.140;5.602;2022-09-21T00:43:34;10.40;99.90
23987;DHT22;12514;52.140;5.602;2022-09-21T00:46:09;10.40;99.90
23987;DHT22;12514;52.140;5.602;2022-09-21T00:48:37;10.50;99.90
23987;DHT22;12514;52.140;5.602;2022-09-21T00:57:54;10.40;99.90
23987;DHT22;12514;52.140;5.602;2022-09-21T01:00:21;10.20;99.90
23987;DHT22;12514;52.140;5.602;2022-09-21T01:02:47;10.20;99.90
23987;DHT22;12514;52.140;5.602;2022-09-21T01:05:13;10.30;99.90
23987;DHT22;12514;52.140;5.602;2022-09-21T01:07:42;10.30;99.90
23987;DHT22;12514;52.140;5.602;2022-09-21T01:10:11;10.20;99.90
23987;DHT22;12514;52.140;5.602;2022-09-21T01:12:50;10.20;99.90
23987;DHT22;12514;52.140;5.602;2022-09-21T01:18:04;10.10;99.90
23987;DHT22;12514;52.140;5.602;2022-09-21T01:23:45;10.10;99.90
23987;DHT22;12514;52.140;5.602;2022-09-21T01:31:45;10.00;99.90
23987;DHT22;12514;52.140;5.602;2022-09-21T01:34:32;10.00;99.90
23987;DHT22;12514;52.140;5.602;2022-09-21T01:40:32;9.90;99.90
23987;DHT22;12514;52.140;5.602;2022-09-21T01:43:00;9.90;99.90
23987;DHT22;12514;52.140;5.602;2022-09-21T01:45:31;9.90;99.90
23987;DHT22;12514;52.140;5.602;2022-09-21T01:47:59;9.80;99.90
23987;DHT22;12514;52.140;5.602;2022-09-21T01:50:31;9.80;99.90
23987;DHT22;12514;52.140;5.602;2022-09-21T01:56:25;9.70;99.90
23987;DHT22;12514;52.140;5.602;2022-09-21T01:59:37;9.60;99.90
23987;DHT22;12514;52.140;5.602;2022-09-21T02:02:10;9.60;99.90
23987;DHT22;12514;52.140;5.602;2022-09-21T02:04:38;9.60;99.90
23987;DHT22;12514;52.140;5.602;2022-09-21T02:07:04;9.60;99.90
23987;DHT22;12514;52.140;5.602;2022-09-21T02:09:30;9.60;99.90
23987;DHT22;12514;52.140;5.602;2022-09-21T02:11:57;9.50;99.90
23987;DHT22;12514;52.140;5.602;2022-09-21T02:14:23;9.50;99.90
23987;DHT22;12514;52.140;5.602;2022-09-21T02:19:49;9.30;99.90
23987;DHT22;12514;52.140;5.602;2022-09-21T02:24:59;9.30;99.90
23987;DHT22;12514;52.140;5.602;2022-09-21T02:27:52;9.20;99.90
23987;DHT22;12514;52.140;5.602;2022-09-21T02:30:23;9.10;99.90
23987;DHT22;12514;52.140;5.602;2022-09-21T02:38:29;9.10;99.90
23987;DHT22;12514;52.140;5.602;2022-09-21T02:43:47;9.10;99.90
23987;DHT22;12514;52.140;5.602;2022-09-21T02:46:27;9.10;99.90
23987;DHT22;12514;52.140;5.602;2022-09-21T02:48:57;9.10;99.90
23987;DHT22;12514;52.140;5.602;2022-09-21T02:54:50;9.10;99.90
23987;DHT22;12514;52.140;5.602;2022-09-21T02:57:17;9.00;99.90
23987;DHT22;12514;52.140;5.602;2022-09-21T02:59:44;9.10;99.90
23987;DHT22;12514;52.140;5.602;2022-09-21T03:02:10;9.20;99.90
23987;DHT22;12514;52.140;5.602;2022-09-21T03:04:37;8.90;99.90
23987;DHT22;12514;52.140;5.602;2022-09-21T03:10:27;8.80;99.90
23987;DHT22;12514;52.140;5.602;2022-09-21T03:12:56;8.80;99.90
23987;DHT22;12514;52.140;5.602;2022-09-21T03:15:23;8.80;99.90
23987;DHT22;12514;52.140;5.602;2022-09-21T03:17:51;8.90;99.90
23987;DHT22;12514;52.140;5.602;2022-09-21T03:20:17;8.90;99.90
23987;DHT22;12514;52.140;5.602;2022-09-21T03:26:05;8.80;99.90
23987;DHT22;12514;52.140;5.602;2022-09-21T03:28:31;8.80;99.90
23987;DHT22;12514;52.140;5.602;2022-09-21T03:30:56;8.70;99.90
23987;DHT22;12514;52.140;5.602;2022-09-21T03:33:22;8.70;99.90
23987;DHT22;12514;52.140;5.602;2022-09-21T03:35:50;8.70;99.90
23987;DHT22;12514;52.140;5.602;2022-09-21T03:41:37;8.60;99.90
23987;DHT22;12514;52.140;5.602;2022-09-21T03:44:03;8.60;99.90
23987;DHT22;12514;52.140;5.602;2022-09-21T03:46:29;8.60;99.90
23987;DHT22;12514;52.140;5.602;2022-09-21T03:48:54;8.60;99.90
23987;DHT22;12514;52.140;5.602;2022-09-21T03:51:20;8.50;99.90
23987;DHT22;12514;52.140;5.602;2022-09-21T03:57:07;8.50;99.90
23987;DHT22;12514;52.140;5.602;2022-09-21T03:59:33;8.50;99.90
23987;DHT22;12514;52.140;5.602;2022-09-21T04:01:59;8.50;99.90
23987;DHT22;12514;52.140;5.602;2022-09-21T04:04:25;8.70;99.90
23987;DHT22;12514;52.140;5.602;2022-09-21T04:06:51;8.50;99.90
23987;DHT22;12514;52.140;5.602;2022-09-21T04:09:16;8.40;99.90
23987;DHT22;12514;52.140;5.602;2022-09-21T04:11:44;8.40;99.90
23987;DHT22;12514;52.140;5.602;2022-09-21T04:14:11;8.30;99.90
23987;DHT22;12514;52.140;5.602;2022-09-21T04:16:36;8.30;99.90
23987;DHT22;12514;52.140;5.602;2022-09-21T04:19:03;8.20;99.90
23987;DHT22;12514;52.140;5.602;2022-09-21T04:21:29;8.20;99.90
23987;DHT22;12514;52.140;5.602;2022-09-21T04:27:17;8.20;99.90
23987;DHT22;12514;52.140;5.602;2022-09-21T04:29:42;8.20;99.90
23987;DHT22;12514;52.140;5.602;2022-09-21T04:32:09;8.30;99.90
23987;DHT22;12514;52.140;5.602;2022-09-21T04:34:35;8.20;99.90
23987;DHT22;12514;52.140;5.602;2022-09-21T04:37:04;8.20;99.90
23987;DHT22;12514;52.140;5.602;2022-09-21T04:39:31;8.20;99.90
23987;DHT22;12514;52.140;5.602;2022-09-21T04:41:57;8.00;99.90
23987;DHT22;12514;52.140;5.602;2022-09-21T04:44:22;8.00;99.90
23987;DHT22;12514;52.140;5.602;2022-09-21T04:46:48;8.00;99.90
23987;DHT22;12514;52.140;5.602;2022-09-21T04:49:14;7.90;99.90
23987;DHT22;12514;52.140;5.602;2022-09-21T04:51:40;8.00;99.90
23987;DHT22;12514;52.140;5.602;2022-09-21T04:54:05;8.00;99.90
23987;DHT22;12514;52.140;5.602;2022-09-21T04:56:32;8.00;99.90
23987;DHT22;12514;52.140;5.602;2022-09-21T04:58:58;8.00;99.90
23987;DHT22;12514;52.140;5.602;2022-09-21T05:01:24;8.00;99.90
23987;DHT22;12514;52.140;5.602;2022-09-21T05:03:49;7.90;99.90
23987;DHT22;12514;52.140;5.602;2022-09-21T05:06:15;7.90;99.90
23987;DHT22;12514;52.140;5.602;2022-09-21T05:12:02;7.90;99.90
23987;DHT22;12514;52.140;5.602;2022-09-21T05:14:28;7.90;99.90
23987;DHT22;12514;52.140;5.602;2022-09-21T05:16:54;7.90;99.90
23987;DHT22;12514;52.140;5.602;2022-09-21T05:19:19;7.90;99.90
23987;DHT22;12514;52.140;5.602;2022-09-21T05:21:45;7.90;99.90
23987;DHT22;12514;52.140;5.602;2022-09-21T05:24:10;7.90;99.90
23987;DHT22;12514;52.140;5.602;2022-09-21T05:26:36;7.90;99.90
23987;DHT22;12514;52.140;5.602;2022-09-21T05:29:02;7.90;99.90
23987;DHT22;12514;52.140;5.602;2022-09-21T05:31:38;7.80;99.90
23987;DHT22;12514;52.140;5.602;2022-09-21T05:39:30;7.80;99.90
23987;DHT22;12514;52.140;5.602;2022-09-21T05:41:56;7.70;99.90
23987;DHT22;12514;52.140;5.602;2022-09-21T05:44:22;7.70;99.90
23987;DHT22;12514;52.140;5.602;2022-09-21T05:47:06;7.70;99.90
23987;DHT22;12514;52.140;5.602;2022-09-21T05:52:22;7.70;99.90
23987;DHT22;12514;52.140;5.602;2022-09-21T05:58:14;7.70;99.90
23987;DHT22;12514;52.140;5.602;2022-09-21T06:03:38;7.80;99.90
23987;DHT22;12514;52.140;5.602;2022-09-21T06:06:07;7.80;99.90
23987;DHT22;12514;52.140;5.602;2022-09-21T06:08:33;7.90;99.90
23987;DHT22;12514;52.140;5.602;2022-09-21T06:10:58;7.80;99.90
23987;DHT22;12514;52.140;5.602;2022-09-21T06:13:24;8.00;99.90
23987;DHT22;12514;52.140;5.602;2022-09-21T06:15:51;8.00;99.90
23987;DHT22;12514;52.140;5.602;2022-09-21T06:18:17;8.00;99.90
23987;DHT22;12514;52.140;5.602;2022-09-21T06:20:42;8.00;99.90
23987;DHT22;12514;52.140;5.602;2022-09-21T06:23:11;8.10;99.90
23987;DHT22;12514;52.140;5.602;2022-09-21T06:25:37;8.20;99.90
23987;DHT22;12514;52.140;5.602;2022-09-21T06:28:12;8.20;99.90
23987;DHT22;12514;52.140;5.602;2022-09-21T06:30:38;8.30;99.90
23987;DHT22;12514;52.140;5.602;2022-09-21T06:33:06;8.40;99.90
23987;DHT22;12514;52.140;5.602;2022-09-21T06:35:34;8.50;99.90
23987;DHT22;12514;52.140;5.602;2022-09-21T06:38:02;8.50;99.90
23987;DHT22;12514;52.140;5.602;2022-09-21T06:40:28;8.60;99.90
23987;DHT22;12514;52.140;5.602;2022-09-21T06:42:59;8.60;99.90
23987;DHT22;12514;52.140;5.602;2022-09-21T06:45:25;8.90;99.90
23987;DHT22;12514;52.140;5.602;2022-09-21T06:47:51;9.00;99.90
23987;DHT22;12514;52.140;5.602;2022-09-21T06:50:17;9.00;99.90
23987;DHT22;12514;52.140;5.602;2022-09-21T06:52:43;9.00;99.90
23987;DHT22;12514;52.140;5.602;2022-09-21T06:55:09;9.00;99.90
23987;DHT22;12514;52.140;5.602;2022-09-21T06:57:35;9.20;99.90
23987;DHT22;12514;52.140;5.602;2022-09-21T07:00:07;9.40;99.90
23987;DHT22;12514;52.140;5.602;2022-09-21T07:02:33;9.40;99.90
23987;DHT22;12514;52.140;5.602;2022-09-21T07:04:59;9.50;99.90
23987;DHT22;12514;52.140;5.602;2022-09-21T07:07:27;9.60;99.90
23987;DHT22;12514;52.140;5.602;2022-09-21T07:09:55;9.80;99.90
23987;DHT22;12514;52.140;5.602;2022-09-21T07:12:20;9.80;99.90
23987;DHT22;12514;52.140;5.602;2022-09-21T07:14:46;9.90;99.90
23987;DHT22;12514;52.140;5.602;2022-09-21T07:17:12;10.00;99.90
23987;DHT22;12514;52.140;5.602;2022-09-21T07:19:39;10.00;99.90
23987;DHT22;12514;52.140;5.602;2022-09-21T07:22:05;10.30;99.90
23987;DHT22;12514;52.140;5.602;2022-09-21T07:27:53;10.40;99.90
23987;DHT22;12514;52.140;5.602;2022-09-21T07:30:23;10.50;99.90
23987;DHT22;12514;52.140;5.602;2022-09-21T07:32:49;10.60;99.90
23987;DHT22;12514;52.140;5.602;2022-09-21T07:35:14;10.70;99.90
23987;DHT22;12514;52.140;5.602;2022-09-21T07:37:40;10.80;99.90
23987;DHT22;12514;52.140;5.602;2022-09-21T07:40:06;10.90;99.90
23987;DHT22;12514;52.140;5.602;2022-09-21T07:42:32;11.00;99.90
23987;DHT22;12514;52.140;5.602;2022-09-21T07:44:57;11.10;99.90
23987;DHT22;12514;52.140;5.602;2022-09-21T07:47:24;11.20;99.90
23987;DHT22;12514;52.140;5.602;2022-09-21T07:49:50;11.30;99.90
23987;DHT22;12514;52.140;5.602;2022-09-21T07:52:15;11.20;99.90
23987;DHT22;12514;52.140;5.602;2022-09-21T07:54:41;11.20;99.90
23987;DHT22;12514;52.140;5.602;2022-09-21T07:57:07;11.40;99.90
23987;DHT22;12514;52.140;5.602;2022-09-21T07:59:51;11.50;99.90
23987;DHT22;12514;52.140;5.602;2022-09-21T08:02:16;11.60;99.90
23987;DHT22;12514;52.140;5.602;2022-09-21T08:04:42;11.60;99.90
23987;DHT22;12514;52.140;5.602;2022-09-21T08:07:08;11.80;99.90
23987;DHT22;12514;52.140;5.602;2022-09-21T08:09:33;11.90;99.90
23987;DHT22;12514;52.140;5.602;2022-09-21T08:11:59;11.90;99.90
23987;DHT22;12514;52.140;5.602;2022-09-21T08:14:25;12.00;99.90
23987;DHT22;12514;52.140;5.602;2022-09-21T08:16:51;12.20;99.90
23987;DHT22;12514;52.140;5.602;2022-09-21T08:19:16;12.20;99.90
23987;DHT22;12514;52.140;5.602;2022-09-21T08:21:43;12.20;99.90
23987;DHT22;12514;52.140;5.602;2022-09-21T08:24:09;12.40;99.90
23987;DHT22;12514;52.140;5.602;2022-09-21T08:26:34;12.40;99.90
23987;DHT22;12514;52.140;5.602;2022-09-21T08:29:00;12.50;99.90
23987;DHT22;12514;52.140;5.602;2022-09-21T08:31:27;12.50;99.90
23987;DHT22;12514;52.140;5.602;2022-09-21T08:33:54;12.50;99.90
23987;DHT22;12514;52.140;5.602;2022-09-21T08:36:20;12.70;99.90
23987;DHT22;12514;52.140;5.602;2022-09-21T08:38:46;12.80;99.90
23987;DHT22;12514;52.140;5.602;2022-09-21T08:44:08;12.90;99.90
23987;DHT22;12514;52.140;5.602;2022-09-21T08:46:36;12.90;99.90
23987;DHT22;12514;52.140;5.602;2022-09-21T08:49:11;13.00;99.90
23987;DHT22;12514;52.140;5.602;2022-09-21T08:52:01;13.10;99.90
23987;DHT22;12514;52.140;5.602;2022-09-21T08:54:39;13.10;99.90
23987;DHT22;12514;52.140;5.602;2022-09-21T08:57:13;13.20;99.90
23987;DHT22;12514;52.140;5.602;2022-09-21T08:59:45;13.30;99.90
23987;DHT22;12514;52.140;5.602;2022-09-21T09:02:36;13.30;99.90
23987;DHT22;12514;52.140;5.602;2022-09-21T09:19:25;13.80;99.90
23987;DHT22;12514;52.140;5.602;2022-09-21T09:21:54;13.90;99.90
23987;DHT22;12514;52.140;5.602;2022-09-21T09:27:44;14.00;99.90
23987;DHT22;12514;52.140;5.602;2022-09-21T09:30:18;14.20;99.90
23987;DHT22;12514;52.140;5.602;2022-09-21T09:35:25;14.10;99.90
23987;DHT22;12514;52.140;5.602;2022-09-21T09:50:12;14.50;99.90
23987;DHT22;12514;52.140;5.602;2022-09-21T09:52:44;14.60;99.90
23987;DHT22;12514;52.140;5.602;2022-09-21T09:55:23;14.70;99.90
23987;DHT22;12514;52.140;5.602;2022-09-21T09:57:52;14.70;99.90
23987;DHT22;12514;52.140;5.602;2022-09-21T10:00:20;14.70;99.90
23987;DHT22;12514;52.140;5.602;2022-09-21T10:02:53;14.60;99.90
23987;DHT22;12514;52.140;5.602;2022-09-21T10:05:23;14.60;99.90
23987;DHT22;12514;52.140;5.602;2022-09-21T10:07:49;14.40;99.90
23987;DHT22;12514;52.140;5.602;2022-09-21T10:16:03;14.60;99.90
23987;DHT22;12514;52.140;5.602;2022-09-21T10:21:09;14.90;99.90
23987;DHT22;12514;52.140;5.602;2022-09-21T10:27:22;15.10;99.90
23987;DHT22;12514;52.140;5.602;2022-09-21T10:29:49;15.10;99.90
23987;DHT22;12514;52.140;5.602;2022-09-21T10:37:36;15.00;99.90
23987;DHT22;12514;52.140;5.602;2022-09-21T10:43:40;15.00;99.90
23987;DHT22;12514;52.140;5.602;2022-09-21T10:46:09;15.10;99.90
23987;DHT22;12514;52.140;5.602;2022-09-21T10:48:36;15.30;99.90
23987;DHT22;12514;52.140;5.602;2022-09-21T10:51:02;15.50;99.90
23987;DHT22;12514;52.140;5.602;2022-09-21T10:53:33;15.20;99.90
23987;DHT22;12514;52.140;5.602;2022-09-21T10:58:38;15.40;99.90
23987;DHT22;12514;52.140;5.602;2022-09-21T11:01:20;15.50;99.90
23987;DHT22;12514;52.140;5.602;2022-09-21T11:04:07;15.60;99.90
23987;DHT22;12514;52.140;5.602;2022-09-21T11:06:45;15.70;99.90
23987;DHT22;12514;52.140;5.602;2022-09-21T11:09:23;15.90;99.90
23987;DHT22;12514;52.140;5.602;2022-09-21T11:12:02;16.10;99.90
23987;DHT22;12514;52.140;5.602;2022-09-21T11:17:35;16.20;99.90
23987;DHT22;12514;52.140;5.602;2022-09-21T11:20:24;16.20;99.90
23987;DHT22;12514;52.140;5.602;2022-09-21T11:25:48;16.40;99.90
23987;DHT22;12514;52.140;5.602;2022-09-21T11:34:08;16.40;99.90
23987;DHT22;12514;52.140;5.602;2022-09-21T11:37:14;16.40;99.90
23987;DHT22;12514;52.140;5.602;2022-09-21T11:48:52;16.50;99.90
23987;DHT22;12514;52.140;5.602;2022-09-21T11:57:06;16.50;99.90
23987;DHT22;12514;52.140;5.602;2022-09-21T12:05:03;16.50;99.90
23987;DHT22;12514;52.140;5.602;2022-09-21T12:13:26;16.20;99.90
23987;DHT22;12514;52.140;5.602;2022-09-21T12:19:44;16.70;99.90
23987;DHT22;12514;52.140;5.602;2022-09-21T12:22:25;16.70;99.90
23987;DHT22;12514;52.140;5.602;2022-09-21T12:25:31;16.60;99.90
23987;DHT22;12514;52.140;5.602;2022-09-21T12:28:16;16.50;99.90
23987;DHT22;12514;52.140;5.602;2022-09-21T12:30:46;16.50;99.90
23987;DHT22;12514;52.140;5.602;2022-09-21T12:33:36;16.60;99.90
23987;DHT22;12514;52.140;5.602;2022-09-21T12:36:11;16.60;99.90
23987;DHT22;12514;52.140;5.602;2022-09-21T12:39:02;16.70;99.90
23987;DHT22;12514;52.140;5.602;2022-09-21T12:41:46;16.80;99.90
23987;DHT22;12514;52.140;5.602;2022-09-21T12:44:33;16.70;99.90
23987;DHT22;12514;52.140;5.602;2022-09-21T12:49:50;16.90;99.90
23987;DHT22;12514;52.140;5.602;2022-09-21T12:52:23;17.20;99.90
23987;DHT22;12514;52.140;5.602;2022-09-21T12:58:17;17.40;99.90
23987;DHT22;12514;52.140;5.602;2022-09-21T13:01:32;17.40;99.90
23987;DHT22;12514;52.140;5.602;2022-09-21T13:06:40;17.50;99.90
23987;DHT22;12514;52.140;5.602;2022-09-21T13:09:12;17.70;99.90
23987;DHT22;12514;52.140;5.602;2022-09-21T13:12:00;17.70;99.90
23987;DHT22;12514;52.140;5.602;2022-09-21T13:14:31;17.80;99.90
23987;DHT22;12514;52.140;5.602;2022-09-21T13:17:02;17.90;99.90
23987;DHT22;12514;52.140;5.602;2022-09-21T13:19:30;17.70;99.90
23987;DHT22;12514;52.140;5.602;2022-09-21T13:22:21;17.40;99.90
23987;DHT22;12514;52.140;5.602;2022-09-21T13:28:19;17.70;99.90
23987;DHT22;12514;52.140;5.602;2022-09-21T13:33:32;17.80;99.90
23987;DHT22;12514;52.140;5.602;2022-09-21T13:36:06;17.90;99.90
23987;DHT22;12514;52.140;5.602;2022-09-21T13:44:43;18.00;99.90
23987;DHT22;12514;52.140;5.602;2022-09-21T13:47:10;17.70;99.90
23987;DHT22;12514;52.140;5.602;2022-09-21T13:49:48;17.70;99.90
23987;DHT22;12514;52.140;5.602;2022-09-21T14:01:37;17.40;99.90
23987;DHT22;12514;52.140;5.602;2022-09-21T14:04:25;17.40;99.90
23987;DHT22;12514;52.140;5.602;2022-09-21T14:06:53;17.40;99.90
23987;DHT22;12514;52.140;5.602;2022-09-21T14:09:32;17.40;99.90
23987;DHT22;12514;52.140;5.602;2022-09-21T14:21:08;17.10;99.90
23987;DHT22;12514;52.140;5.602;2022-09-21T14:23:35;16.80;99.90
23987;DHT22;12514;52.140;5.602;2022-09-21T14:31:55;16.70;99.90
23987;DHT22;12514;52.140;5.602;2022-09-21T14:34:25;16.80;99.90
23987;DHT22;12514;52.140;5.602;2022-09-21T14:36:54;16.80;99.90
23987;DHT22;12514;52.140;5.602;2022-09-21T14:39:29;16.90;99.90
23987;DHT22;12514;52.140;5.602;2022-09-21T14:42:00;16.90;99.90
23987;DHT22;12514;52.140;5.602;2022-09-21T14:44:29;17.00;99.90
23987;DHT22;12514;52.140;5.602;2022-09-21T14:52:35;17.10;99.90
23987;DHT22;12514;52.140;5.602;2022-09-21T15:18:40;17.90;99.90
23987;DHT22;12514;52.140;5.602;2022-09-21T15:21:29;17.60;99.90
23987;DHT22;12514;52.140;5.602;2022-09-21T15:24:08;17.40;99.90
23987;DHT22;12514;52.140;5.602;2022-09-21T15:26:34;17.30;99.90
23987;DHT22;12514;52.140;5.602;2022-09-21T15:29:03;17.30;99.90
23987;DHT22;12514;52.140;5.602;2022-09-21T15:31:33;17.30;99.90
23987;DHT22;12514;52.140;5.602;2022-09-21T15:34:00;17.40;99.90
23987;DHT22;12514;52.140;5.602;2022-09-21T15:36:29;17.40;99.90
23987;DHT22;12514;52.140;5.602;2022-09-21T15:38:55;17.30;99.90
23987;DHT22;12514;52.140;5.602;2022-09-21T15:41:44;17.10;99.90
23987;DHT22;12514;52.140;5.602;2022-09-21T15:44:21;17.00;99.90
23987;DHT22;12514;52.140;5.602;2022-09-21T15:46:51;16.80;99.90
23987;DHT22;12514;52.140;5.602;2022-09-21T15:49:22;16.90;99.90
23987;DHT22;12514;52.140;5.602;2022-09-21T15:51:55;16.70;99.90
23987;DHT22;12514;52.140;5.602;2022-09-21T15:54:33;16.80;99.90
23987;DHT22;12514;52.140;5.602;2022-09-21T15:57:08;16.70;99.90
23987;DHT22;12514;52.140;5.602;2022-09-21T15:59:48;16.80;99.90
23987;DHT22;12514;52.140;5.602;2022-09-21T16:02:21;16.90;99.90
23987;DHT22;12514;52.140;5.602;2022-09-21T16:04:48;16.90;99.90
23987;DHT22;12514;52.140;5.602;2022-09-21T16:07:30;17.00;99.90
23987;DHT22;12514;52.140;5.602;2022-09-21T16:09:56;17.00;99.90
23987;DHT22;12514;52.140;5.602;2022-09-21T16:14:51;17.00;99.90
23987;DHT22;12514;52.140;5.602;2022-09-21T16:17:28;17.00;99.90
23987;DHT22;12514;52.140;5.602;2022-09-21T16:22:29;16.90;99.90
23987;DHT22;12514;52.140;5.602;2022-09-21T16:24:58;16.90;99.90
23987;DHT22;12514;52.140;5.602;2022-09-21T16:27:29;16.90;99.90
23987;DHT22;12514;52.140;5.602;2022-09-21T16:29:57;16.80;99.90
23987;DHT22;12514;52.140;5.602;2022-09-21T16:32:34;16.80;99.90
23987;DHT22;12514;52.140;5.602;2022-09-21T16:37:56;16.60;99.90
23987;DHT22;12514;52.140;5.602;2022-09-21T16:40:24;16.60;99.90
23987;DHT22;12514;52.140;5.602;2022-09-21T16:42:50;16.50;99.90
23987;DHT22;12514;52.140;5.602;2022-09-21T16:45:23;16.50;99.90
23987;DHT22;12514;52.140;5.602;2022-09-21T16:47:49;16.50;99.90
23987;DHT22;12514;52.140;5.602;2022-09-21T16:50:17;16.40;99.90
23987;DHT22;12514;52.140;5.602;2022-09-21T16:52:43;16.40;99.90
23987;DHT22;12514;52.140;5.602;2022-09-21T16:55:20;16.40;99.90
23987;DHT22;12514;52.140;5.602;2022-09-21T16:57:45;16.30;99.90
23987;DHT22;12514;52.140;5.602;2022-09-21T17:00:13;16.30;99.90
23987;DHT22;12514;52.140;5.602;2022-09-21T17:02:44;16.20;99.90
23987;DHT22;12514;52.140;5.602;2022-09-21T17:05:10;16.10;99.90
23987;DHT22;12514;52.140;5.602;2022-09-21T17:07:51;16.10;99.90
23987;DHT22;12514;52.140;5.602;2022-09-21T17:10:18;15.90;99.90
23987;DHT22;12514;52.140;5.602;2022-09-21T17:12:44;15.80;99.90
23987;DHT22;12514;52.140;5.602;2022-09-21T17:15:13;15.80;99.90
23987;DHT22;12514;52.140;5.602;2022-09-21T17:17:39;15.70;99.90
23987;DHT22;12514;52.140;5.602;2022-09-21T17:23:03;15.50;99.90
23987;DHT22;12514;52.140;5.602;2022-09-21T17:25:30;15.50;99.90
23987;DHT22;12514;52.140;5.602;2022-09-21T17:27:58;15.40;99.90
23987;DHT22;12514;52.140;5.602;2022-09-21T17:30:24;15.30;99.90
23987;DHT22;12514;52.140;5.602;2022-09-21T17:32:51;15.20;99.90
23987;DHT22;12514;52.140;5.602;2022-09-21T17:35:32;15.10;99.90
23987;DHT22;12514;52.140;5.602;2022-09-21T17:38:00;15.00;99.90
23987;DHT22;12514;52.140;5.602;2022-09-21T17:40:27;14.90;99.90
23987;DHT22;12514;52.140;5.602;2022-09-21T17:43:02;14.80;99.90
23987;DHT22;12514;52.140;5.602;2022-09-21T17:48:20;14.70;99.90
23987;DHT22;12514;52.140;5.602;2022-09-21T17:50:47;14.60;99.90
23987;DHT22;12514;52.140;5.602;2022-09-21T17:53:14;14.50;99.90
23987;DHT22;12514;52.140;5.602;2022-09-21T17:56:13;14.50;99.90
23987;DHT22;12514;52.140;5.602;2022-09-21T18:01:33;14.30;99.90
23987;DHT22;12514;52.140;5.602;2022-09-21T18:04:01;14.20;99.90
23987;DHT22;12514;52.140;5.602;2022-09-21T18:06:27;14.20;99.90
23987;DHT22;12514;52.140;5.602;2022-09-21T18:08:54;14.10;99.90
23987;DHT22;12514;52.140;5.602;2022-09-21T18:21:46;13.90;99.90
23987;DHT22;12514;52.140;5.602;2022-09-21T18:24:20;13.60;99.90
23987;DHT22;12514;52.140;5.602;2022-09-21T18:26:48;13.60;99.90
23987;DHT22;12514;52.140;5.602;2022-09-21T18:29:26;13.70;99.90
23987;DHT22;12514;52.140;5.602;2022-09-21T18:46:30;13.40;99.90
23987;DHT22;12514;52.140;5.602;2022-09-21T18:51:53;13.30;99.90
23987;DHT22;12514;52.140;5.602;2022-09-21T18:54:23;13.30;99.90
23987;DHT22;12514;52.140;5.602;2022-09-21T18:56:51;13.20;99.90
23987;DHT22;12514;52.140;5.602;2022-09-21T19:02:53;13.10;99.90
23987;DHT22;12514;52.140;5.602;2022-09-21T19:05:19;13.00;99.90
23987;DHT22;12514;52.140;5.602;2022-09-21T19:10:46;13.00;99.90
23987;DHT22;12514;52.140;5.602;2022-09-21T19:19:03;12.80;99.90
23987;DHT22;12514;52.140;5.602;2022-09-21T19:22:28;12.80;99.90
23987;DHT22;12514;52.140;5.602;2022-09-21T19:30:57;12.70;99.90
23987;DHT22;12514;52.140;5.602;2022-09-21T19:33:29;12.60;99.90
23987;DHT22;12514;52.140;5.602;2022-09-21T19:35:55;12.50;99.90
23987;DHT22;12514;52.140;5.602;2022-09-21T19:38:21;12.40;99.90
23987;DHT22;12514;52.140;5.602;2022-09-21T19:40:51;12.40;99.90
23987;DHT22;12514;52.140;5.602;2022-09-21T19:49:47;12.30;99.90
23987;DHT22;12514;52.140;5.602;2022-09-21T19:52:18;12.20;99.90
23987;DHT22;12514;52.140;5.602;2022-09-21T19:54:46;12.20;99.90
23987;DHT22;12514;52.140;5.602;2022-09-21T19:57:32;12.20;99.90
23987;DHT22;12514;52.140;5.602;2022-09-21T20:03:40;11.90;99.90
23987;DHT22;12514;52.140;5.602;2022-09-21T20:08:45;11.90;99.90
23987;DHT22;12514;52.140;5.602;2022-09-21T20:11:34;11.80;99.90
23987;DHT22;12514;52.140;5.602;2022-09-21T20:14:35;11.80;99.90
23987;DHT22;12514;52.140;5.602;2022-09-21T20:17:04;11.80;99.90
23987;DHT22;12514;52.140;5.602;2022-09-21T20:22:33;11.80;99.90
23987;DHT22;12514;52.140;5.602;2022-09-21T20:25:16;11.90;99.90
23987;DHT22;12514;52.140;5.602;2022-09-21T20:27:49;11.90;99.90
23987;DHT22;12514;52.140;5.602;2022-09-21T20:30:17;11.70;99.90
23987;DHT22;12514;52.140;5.602;2022-09-21T20:32:47;11.60;99.90
23987;DHT22;12514;52.140;5.602;2022-09-21T20:35:25;11.60;99.90
23987;DHT22;12514;52.140;5.602;2022-09-21T20:37:52;11.60;99.90
23987;DHT22;12514;52.140;5.602;2022-09-21T20:40:19;11.50;99.90
23987;DHT22;12514;52.140;5.602;2022-09-21T20:42:49;11.50;99.90
23987;DHT22;12514;52.140;5.602;2022-09-21T20:45:15;11.40;99.90
23987;DHT22;12514;52.140;5.602;2022-09-21T20:47:40;11.40;99.90
23987;DHT22;12514;52.140;5.602;2022-09-21T20:50:07;11.40;99.90
23987;DHT22;12514;52.140;5.602;2022-09-21T20:52:36;11.30;99.90
23987;DHT22;12514;52.140;5.602;2022-09-21T20:55:02;11.30;99.90
23987;DHT22;12514;52.140;5.602;2022-09-21T20:57:28;11.30;99.90
23987;DHT22;12514;52.140;5.602;2022-09-21T20:59:53;11.30;99.90
23987;DHT22;12514;52.140;5.602;2022-09-21T21:02:19;11.30;99.90
23987;DHT22;12514;52.140;5.602;2022-09-21T21:04:45;11.30;99.90
23987;DHT22;12514;52.140;5.602;2022-09-21T21:07:10;11.30;99.90
23987;DHT22;12514;52.140;5.602;2022-09-21T21:09:36;11.20;99.90
23987;DHT22;12514;52.140;5.602;2022-09-21T21:12:01;11.10;99.90
23987;DHT22;12514;52.140;5.602;2022-09-21T21:14:27;11.10;99.90
23987;DHT22;12514;52.140;5.602;2022-09-21T21:16:54;10.90;99.90
23987;DHT22;12514;52.140;5.602;2022-09-21T21:19:19;10.90;99.90
23987;DHT22;12514;52.140;5.602;2022-09-21T21:21:45;10.90;99.90
23987;DHT22;12514;52.140;5.602;2022-09-21T21:24:11;10.90;99.90
23987;DHT22;12514;52.140;5.602;2022-09-21T21:26:55;10.90;99.90
23987;DHT22;12514;52.140;5.602;2022-09-21T21:29:21;10.80;99.90
23987;DHT22;12514;52.140;5.602;2022-09-21T21:31:48;10.80;99.90